CheckWX is a tool to help pilots better visualize weather data.  It is not intended as a substitute for an official pre-flight weather briefing.

03:18:09 UTC

KEED METAR
Needles Airport
Needles, California, USA
Current

22 mins ago

KEED 270256Z AUTO 22012G19KT 10SM CLR 24/M01 A2971 RMK AO2 SLP036 T02391006 53003 $
Observed
May-27 @ 02:56 UTC
Wind
  • 220° at 12 KTS
  • Gusting to 19 KTS
Visibility
10 SM
Flight Rules
VFR
Cloud Levels
  • Clear skies
Temperature
24°C / 75°F
Dewpoint
-1°C / 30°F
Humidity
19%
Altimeter
29.71" Hg
Pressure
1006.12 hPa
Previous

1 hour ago

KEED 270156Z AUTO 23018G23KT 10SM BKN110 26/01 A2971 RMK AO2 PK WND 19029/0108 SLP035 T02560006 $
Observed
May-27 @ 01:56 UTC
Wind
  • 230° at 18 KTS
  • Gusting to 23 KTS
Visibility
10 SM
Flight Rules
VFR
Cloud Levels
  • Broken at 11,000' AGL
Temperature
26°C / 79°F
Dewpoint
C / 34°F
Humidity
20%
Altimeter
29.71" Hg
Pressure
1006.12 hPa
Previous

2 hours ago

KEED 270056Z AUTO 20020G30KT 10SM SCT110 27/01 A2970 RMK AO2 PK WND 21032/0022 WSHFT 2343 SLP031 T02670011 $
Observed
May-27 @ 00:56 UTC
Wind
  • 200° at 20 KTS
  • Gusting to 30 KTS
Visibility
10 SM
Flight Rules
VFR
Cloud Levels
  • Scattered at 11,000' AGL
Temperature
27°C / 81°F
Dewpoint
C / 34°F
Humidity
18%
Altimeter
29.7" Hg
Pressure
1005.72 hPa